createdAt,value
2023-03-03T00:01:15.364Z,4.25
2023-03-03T00:04:16.712Z,2.58
2023-03-03T00:07:22.984Z,2.75
2023-03-03T00:10:24.384Z,3.47
2023-03-03T00:13:27.096Z,3.40
2023-03-03T00:16:30.918Z,3.42
2023-03-03T00:19:36.371Z,2.75
2023-03-03T00:22:38.067Z,3.53
2023-03-03T00:25:42.485Z,2.85
2023-03-03T00:28:48.458Z,2.03
2023-03-03T00:31:49.952Z,2.80
2023-03-03T00:34:52.704Z,3.08
2023-03-03T00:37:55.814Z,2.78
2023-03-03T00:40:57.156Z,2.90
2023-03-03T00:43:58.496Z,2.80
2023-03-03T00:47:22.971Z,4.00
2023-03-03T00:50:24.349Z,2.83
2023-03-03T00:53:29.547Z,2.85
2023-03-03T00:59:32.305Z,3.10
2023-03-03T01:02:33.635Z,2.03
2023-03-03T01:05:35.157Z,3.45
2023-03-03T01:08:36.545Z,2.80
2023-03-03T01:11:37.810Z,3.15
2023-03-03T01:14:39.888Z,2.97
2023-03-03T01:17:42.153Z,3.28
2023-03-03T01:20:43.581Z,3.10
2023-03-03T01:23:44.964Z,2.60
2023-03-03T01:26:46.350Z,2.97
2023-03-03T01:29:47.649Z,3.13
2023-03-03T01:32:49.172Z,5.13
2023-03-03T01:35:50.497Z,3.67
2023-03-03T01:38:52.200Z,3.03
2023-03-03T01:41:53.479Z,3.00
2023-03-03T01:45:13.745Z,3.50
2023-03-03T01:48:21.223Z,3.67
2023-03-03T01:51:22.469Z,2.33
2023-03-03T01:54:33.716Z,2.45
2023-03-03T01:57:37.234Z,2.50
2023-03-03T02:00:41.097Z,2.80
2023-03-03T02:03:43.461Z,4.22
2023-03-03T02:06:47.703Z,3.47
2023-03-03T02:10:01.397Z,3.22
2023-03-03T02:13:02.683Z,2.42
2023-03-03T02:16:04.139Z,2.78
2023-03-03T02:19:09.808Z,2.17
2023-03-03T02:22:11.590Z,2.28
2023-03-03T02:25:15.798Z,2.50
2023-03-03T02:28:17.251Z,2.05
2023-03-03T02:31:19.880Z,2.92
2023-03-03T02:34:21.155Z,2.85
2023-03-03T02:37:22.577Z,2.72
2023-03-03T02:40:26.454Z,2.72
2023-03-03T02:43:31.684Z,4.38
2023-03-03T02:49:35.163Z,2.42
2023-03-03T02:52:37.214Z,2.45
2023-03-03T02:55:38.556Z,3.83
2023-03-03T02:58:39.812Z,2.78
2023-03-03T03:01:41.429Z,3.15
2023-03-03T03:04:42.857Z,3.60
2023-03-03T03:07:44.262Z,1.50
2023-03-03T03:10:45.549Z,3.65
2023-03-03T03:13:46.832Z,3.90
2023-03-03T03:16:48.264Z,3.47
2023-03-03T03:19:49.750Z,2.00
2023-03-03T03:22:51.030Z,3.00
2023-03-03T03:25:52.369Z,2.08
2023-03-03T03:28:53.803Z,3.45
2023-03-03T03:31:55.195Z,2.40
2023-03-03T03:34:56.488Z,2.60
2023-03-03T03:37:57.731Z,2.67
2023-03-03T03:40:59.056Z,2.30
2023-03-03T03:44:00.357Z,3.83
2023-03-03T03:47:01.654Z,3.45
2023-03-03T03:50:03.105Z,3.45
2023-03-03T03:53:04.911Z,2.83
2023-03-03T03:56:06.406Z,2.90
2023-03-03T03:59:08.142Z,3.17
2023-03-03T04:02:09.460Z,3.08
2023-03-03T04:05:10.850Z,2.55
2023-03-03T04:08:12.297Z,2.70
2023-03-03T04:11:13.586Z,3.47
2023-03-03T04:14:14.876Z,3.40
2023-03-03T04:17:17.128Z,3.20
2023-03-03T04:20:18.507Z,3.08
2023-03-03T04:23:19.959Z,2.95
2023-03-03T04:26:21.240Z,4.07
2023-03-03T04:29:22.539Z,3.78
2023-03-03T04:32:23.933Z,2.20
2023-03-03T04:35:25.453Z,2.92
2023-03-03T04:38:27.025Z,3.42
2023-03-03T04:41:28.345Z,4.85
2023-03-03T04:44:29.688Z,2.63
2023-03-03T04:47:32.336Z,3.95
2023-03-03T04:50:34.821Z,3.15
2023-03-03T04:53:38.245Z,5.80
2023-03-03T04:56:39.594Z,4.80
2023-03-03T04:59:40.869Z,4.30
2023-03-03T05:02:42.342Z,4.18
2023-03-03T05:05:43.680Z,5.93
2023-03-03T05:08:45.656Z,9.50
2023-03-03T05:11:47.057Z,4.80
2023-03-03T05:14:48.588Z,4.13
2023-03-03T05:17:50.006Z,4.30
2023-03-03T05:20:52.132Z,4.13
2023-03-03T05:23:53.383Z,4.13
2023-03-03T05:26:54.748Z,5.13
2023-03-03T05:29:56.009Z,2.88
2023-03-03T05:32:59.291Z,3.10
2023-03-03T05:36:00.598Z,3.35
2023-03-03T05:39:01.845Z,3.47
2023-03-03T05:42:03.526Z,3.08
2023-03-03T05:45:05.021Z,3.28
2023-03-03T05:48:06.668Z,2.72
2023-03-03T05:51:07.971Z,3.67
2023-03-03T05:54:09.542Z,4.10
2023-03-03T05:57:11.132Z,5.35
2023-03-03T06:00:13.159Z,4.00
2023-03-03T06:03:14.481Z,3.47
2023-03-03T06:06:17.192Z,3.63
2023-03-03T06:09:19.141Z,5.68
2023-03-03T06:12:20.445Z,5.60
2023-03-03T06:15:22.523Z,3.80
2023-03-03T06:18:23.924Z,3.22
2023-03-03T06:21:25.227Z,3.92
2023-03-03T06:24:30.114Z,4.55
2023-03-03T06:27:31.429Z,5.53
2023-03-03T06:30:32.733Z,4.53
2023-03-03T06:33:34.023Z,2.67
2023-03-03T06:36:35.401Z,4.03
2023-03-03T06:39:36.640Z,5.70
2023-03-03T06:42:37.947Z,5.75
2023-03-03T06:45:39.373Z,6.47
2023-03-03T06:48:42.027Z,6.05
2023-03-03T06:51:45.249Z,6.05
2023-03-03T06:54:46.628Z,4.50
2023-03-03T06:57:47.984Z,5.35
2023-03-03T07:00:59.284Z,4.03
2023-03-03T07:04:00.737Z,5.35
2023-03-03T07:07:13.618Z,5.32
2023-03-03T07:10:25.581Z,5.85
2023-03-03T07:13:28.126Z,5.75
2023-03-03T07:16:29.551Z,5.95
2023-03-03T07:19:33.177Z,5.10
2023-03-03T07:22:34.487Z,6.88
2023-03-03T07:25:35.882Z,5.28
2023-03-03T07:28:39.472Z,5.70
2023-03-03T07:31:41.574Z,7.15
2023-03-03T07:34:46.388Z,8.75
2023-03-03T07:37:47.988Z,6.10
2023-03-03T07:40:53.462Z,5.13
2023-03-03T07:44:17.568Z,6.13
2023-03-03T07:47:26.292Z,5.63
2023-03-03T07:50:27.548Z,6.72
2023-03-03T07:53:34.775Z,6.75
2023-03-03T07:56:36.342Z,6.10
2023-03-03T07:59:38.260Z,6.32
2023-03-03T08:02:41.476Z,7.30
2023-03-03T08:05:43.668Z,8.50
2023-03-03T08:08:47.333Z,6.93
2023-03-03T08:11:53.910Z,5.45
2023-03-03T08:14:56.457Z,6.85
2023-03-03T08:18:00.996Z,7.20
2023-03-03T08:21:12.877Z,6.70
2023-03-03T08:24:14.151Z,8.38
2023-03-03T08:27:15.438Z,7.35
2023-03-03T08:30:16.833Z,8.32
2023-03-03T08:33:18.592Z,7.18
2023-03-03T08:36:19.863Z,8.55
2023-03-03T08:39:21.321Z,8.30
2023-03-03T08:42:22.587Z,8.32
2023-03-03T08:45:24.549Z,8.32
2023-03-03T08:48:26.453Z,6.00
2023-03-03T08:51:27.783Z,9.52
2023-03-03T08:54:29.160Z,8.30
2023-03-03T08:57:30.461Z,7.07
2023-03-03T09:00:31.780Z,6.00
2023-03-03T09:03:33.136Z,8.85
2023-03-03T09:06:34.480Z,7.90
2023-03-03T09:09:37.361Z,5.95
2023-03-03T09:12:40.530Z,6.70
2023-03-03T09:15:42.066Z,7.55
2023-03-03T09:18:44.134Z,10.70
2023-03-03T09:21:45.520Z,8.13
2023-03-03T09:24:47.829Z,8.20
2023-03-03T09:27:49.149Z,7.07
2023-03-03T09:30:51.083Z,9.30
2023-03-03T09:33:55.220Z,6.95
2023-03-03T09:36:56.686Z,7.70
2023-03-03T09:39:58.481Z,10.23
2023-03-03T09:43:00.598Z,8.25
2023-03-03T09:46:17.869Z,5.90
2023-03-03T09:49:26.511Z,8.07
2023-03-03T09:52:37.527Z,8.57
2023-03-03T09:55:47.836Z,6.88
2023-03-03T09:58:49.087Z,10.55
2023-03-03T10:01:56.558Z,9.60
2023-03-03T10:05:05.608Z,8.05
2023-03-03T10:08:25.746Z,4.07
2023-03-03T10:11:31.937Z,8.00
2023-03-03T10:14:52.133Z,8.50
2023-03-03T10:17:55.638Z,9.35
2023-03-03T10:21:02.067Z,8.57
2023-03-03T10:24:22.397Z,9.00
2023-03-03T10:27:23.631Z,6.45
2023-03-03T10:30:41.269Z,6.63
2023-03-03T10:33:47.473Z,5.18
2023-03-03T10:36:57.202Z,8.52
2023-03-03T10:40:10.788Z,8.45
2023-03-03T10:43:26.062Z,8.52
2023-03-03T10:46:49.782Z,6.07
2023-03-03T10:50:10.920Z,5.38
2023-03-03T10:53:15.336Z,7.18
2023-03-03T10:56:22.413Z,7.80
2023-03-03T10:59:36.576Z,7.75
2023-03-03T11:02:40.916Z,8.75
2023-03-03T11:06:01.211Z,8.20
2023-03-03T11:09:05.381Z,7.10
2023-03-03T11:12:20.173Z,9.45
2023-03-03T11:15:32.034Z,8.25
2023-03-03T11:18:34.446Z,9.93
2023-03-03T11:21:47.333Z,9.75
2023-03-03T11:24:50.421Z,9.07
2023-03-03T11:27:51.707Z,10.65
2023-03-03T11:31:01.968Z,10.23
2023-03-03T11:34:26.352Z,8.85
2023-03-03T11:37:30.626Z,8.90
2023-03-03T11:40:41.424Z,9.68
2023-03-03T11:43:44.647Z,9.48
2023-03-03T11:46:55.244Z,9.23
2023-03-03T11:50:04.496Z,9.18
2023-03-03T11:53:05.725Z,8.90
2023-03-03T11:56:27.323Z,9.15
2023-03-03T11:59:44.408Z,9.05
2023-03-03T12:03:06.412Z,8.15
2023-03-03T12:06:26.290Z,9.18
2023-03-03T12:09:36.676Z,9.40
2023-03-03T12:12:40.994Z,8.50
2023-03-03T12:15:52.112Z,8.85
2023-03-03T12:19:13.701Z,9.52
2023-03-03T12:22:17.847Z,8.93
2023-03-03T12:25:22.657Z,8.27
2023-03-03T12:28:36.518Z,9.95
2023-03-03T12:31:47.041Z,8.98
2023-03-03T12:34:58.358Z,8.88
2023-03-03T12:37:59.713Z,9.07
2023-03-03T12:41:07.066Z,9.95
2023-03-03T12:44:16.571Z,8.15
2023-03-03T12:47:23.221Z,8.55
2023-03-03T12:50:24.694Z,9.70
2023-03-03T12:53:28.683Z,8.73
2023-03-03T12:56:29.999Z,10.00
2023-03-03T12:59:44.000Z,8.98
2023-03-03T13:03:04.026Z,8.63
2023-03-03T13:06:11.695Z,8.20
2023-03-03T13:09:18.966Z,8.57
2023-03-03T13:12:23.080Z,8.68
2023-03-03T13:15:32.698Z,7.97
2023-03-03T13:18:44.611Z,8.40
2023-03-03T13:21:59.827Z,8.38
2023-03-03T13:25:05.202Z,8.98
2023-03-03T13:28:28.468Z,9.63
2023-03-03T13:31:32.954Z,7.82
2023-03-03T13:34:40.684Z,7.85
2023-03-03T13:37:44.691Z,7.40
2023-03-03T13:40:49.124Z,8.73
2023-03-03T13:43:54.854Z,7.53
2023-03-03T13:47:02.194Z,8.20
2023-03-03T13:50:15.917Z,7.55
2023-03-03T13:53:17.221Z,8.20
2023-03-03T13:56:18.506Z,7.60
2023-03-03T13:59:24.413Z,7.53
2023-03-03T14:02:26.097Z,7.35
2023-03-03T14:05:27.405Z,6.95
2023-03-03T14:08:28.703Z,7.57
2023-03-03T14:11:44.417Z,7.70
2023-03-03T14:14:57.644Z,7.10
2023-03-03T14:18:02.023Z,7.82
2023-03-03T14:21:05.440Z,7.28
2023-03-03T14:24:17.513Z,6.97
2023-03-03T14:27:24.390Z,7.40
2023-03-03T14:30:34.040Z,6.82
2023-03-03T14:33:35.401Z,7.22
2023-03-03T14:36:38.928Z,6.90
2023-03-03T14:39:40.669Z,7.05
2023-03-03T14:42:53.960Z,6.70
2023-03-03T14:45:56.361Z,6.57
2023-03-03T14:48:58.758Z,6.32
2023-03-03T14:52:23.747Z,7.10
2023-03-03T14:55:31.653Z,5.75
2023-03-03T14:58:41.122Z,6.28
2023-03-03T15:01:42.818Z,6.28
2023-03-03T15:04:44.914Z,5.57
2023-03-03T15:07:47.424Z,5.03
2023-03-03T15:10:48.726Z,5.38
2023-03-03T15:13:50.129Z,6.45
2023-03-03T15:16:51.554Z,5.50
2023-03-03T15:20:01.764Z,5.43
2023-03-03T15:23:08.869Z,6.15
2023-03-03T15:26:10.199Z,5.53
2023-03-03T15:29:24.699Z,5.15
2023-03-03T15:32:30.703Z,5.60
2023-03-03T15:35:48.598Z,5.22
2023-03-03T15:38:52.902Z,5.18
2023-03-03T15:42:00.804Z,4.60
2023-03-03T15:45:14.175Z,4.90
2023-03-03T15:48:18.527Z,4.68
2023-03-03T15:51:22.560Z,5.40
2023-03-03T15:57:28.399Z,5.00
2023-03-03T16:00:29.704Z,5.45
2023-03-03T16:03:32.480Z,4.80
2023-03-03T16:06:38.140Z,3.90
2023-03-03T16:09:48.520Z,3.47
2023-03-03T16:12:49.984Z,4.03
2023-03-03T16:15:57.640Z,4.25
2023-03-03T16:19:11.815Z,4.72
2023-03-03T16:22:32.107Z,4.90
2023-03-03T16:25:36.235Z,6.25
2023-03-03T16:28:49.858Z,5.65
2023-03-03T16:31:55.957Z,5.22
2023-03-03T16:35:12.910Z,8.13
2023-03-03T16:38:19.394Z,7.85
2023-03-03T16:41:29.062Z,7.90
2023-03-03T16:44:35.416Z,8.10
2023-03-03T16:47:39.810Z,6.97
2023-03-03T16:50:43.886Z,7.60
2023-03-03T16:53:51.339Z,6.28
2023-03-03T16:56:58.572Z,6.18
2023-03-03T17:00:10.462Z,6.07
2023-03-03T17:03:33.588Z,5.22
2023-03-03T17:06:41.187Z,4.10
2023-03-03T17:09:55.519Z,4.82
2023-03-03T17:13:00.005Z,4.68
2023-03-03T17:16:19.872Z,5.28
2023-03-03T17:19:21.720Z,4.60
2023-03-03T17:22:29.044Z,4.15
2023-03-03T17:25:37.355Z,4.15
2023-03-03T17:28:50.787Z,4.90
2023-03-03T17:32:01.153Z,4.22
2023-03-03T17:35:08.438Z,4.15
2023-03-03T17:38:12.765Z,4.25
2023-03-03T17:41:32.704Z,3.88
2023-03-03T17:44:37.837Z,3.95
2023-03-03T17:47:57.574Z,3.78
2023-03-03T17:51:04.768Z,4.10
2023-03-03T17:54:12.166Z,4.78
2023-03-03T17:57:38.240Z,4.30
2023-03-03T18:00:45.450Z,5.00
2023-03-03T18:04:07.130Z,3.85
2023-03-03T18:07:23.489Z,3.85
2023-03-03T18:10:25.111Z,4.18
2023-03-03T18:13:41.852Z,4.55
2023-03-03T18:16:46.409Z,4.68
2023-03-03T18:20:06.640Z,4.47
2023-03-03T18:23:26.733Z,3.95
2023-03-03T18:26:35.318Z,4.47
2023-03-03T18:29:37.449Z,4.82
2023-03-03T18:32:44.557Z,5.13
2023-03-03T18:35:46.070Z,4.65
2023-03-03T18:38:48.270Z,4.80
2023-03-03T18:42:13.110Z,5.07
2023-03-03T18:45:20.409Z,3.88
2023-03-03T18:48:41.904Z,4.22
2023-03-03T18:51:43.654Z,4.38
2023-03-03T18:54:58.648Z,5.75
2023-03-03T18:58:15.503Z,4.25
2023-03-03T19:01:32.421Z,4.88
2023-03-03T19:04:36.059Z,4.90
2023-03-03T19:07:40.745Z,5.15
2023-03-03T19:10:51.046Z,6.15
2023-03-03T19:14:03.437Z,4.35
2023-03-03T19:17:23.309Z,5.18
2023-03-03T19:20:25.025Z,7.97
2023-03-03T19:23:26.338Z,5.57
2023-03-03T19:26:29.129Z,5.45
2023-03-03T19:29:53.283Z,6.75
2023-03-03T19:32:54.537Z,5.15
2023-03-03T19:36:06.613Z,5.82
2023-03-03T19:39:28.293Z,4.72
2023-03-03T19:42:46.377Z,3.92
2023-03-03T19:48:59.145Z,4.00
2023-03-03T19:52:13.844Z,3.88
2023-03-03T19:55:33.832Z,4.70
2023-03-03T19:58:55.569Z,3.60
2023-03-03T20:02:15.886Z,3.33
2023-03-03T20:05:35.934Z,3.60
2023-03-03T20:08:57.495Z,3.50
2023-03-03T20:12:13.171Z,3.17
2023-03-03T20:15:19.283Z,4.25
2023-03-03T20:18:40.666Z,3.65
2023-03-03T20:21:46.396Z,3.83
2023-03-03T20:25:11.719Z,4.20
2023-03-03T20:28:19.170Z,3.10
2023-03-03T20:31:29.812Z,3.00
2023-03-03T20:34:37.999Z,3.17
2023-03-03T20:37:44.967Z,2.83
2023-03-03T20:40:49.050Z,3.45
2023-03-03T20:44:09.340Z,4.30
2023-03-03T20:47:35.453Z,4.82
2023-03-03T20:50:45.614Z,3.85
2023-03-03T20:53:59.810Z,3.00
2023-03-03T20:57:01.127Z,2.45
2023-03-03T21:00:11.499Z,3.10
2023-03-03T21:03:28.285Z,3.13
2023-03-03T21:06:38.771Z,4.55
2023-03-03T21:09:40.218Z,3.10
2023-03-03T21:12:41.538Z,3.55
2023-03-03T21:15:42.869Z,3.90
2023-03-03T21:18:55.208Z,2.92
2023-03-03T21:21:57.179Z,2.60
2023-03-03T21:25:01.541Z,3.65
2023-03-03T21:28:32.455Z,3.20
2023-03-03T21:31:54.135Z,3.00
2023-03-03T21:35:04.518Z,3.50
2023-03-03T21:38:06.400Z,3.33
2023-03-03T21:41:08.334Z,4.05
2023-03-03T21:44:28.866Z,2.70
2023-03-03T21:47:30.284Z,3.97
2023-03-03T21:50:32.809Z,2.45
2023-03-03T21:53:34.793Z,3.47
2023-03-03T21:56:37.860Z,3.40
2023-03-03T21:59:39.326Z,4.40
2023-03-03T22:02:40.646Z,3.83
2023-03-03T22:05:41.911Z,2.95
2023-03-03T22:08:43.226Z,3.10
2023-03-03T22:11:45.241Z,3.42
2023-03-03T22:14:46.718Z,2.33
2023-03-03T22:17:48.008Z,2.45
2023-03-03T22:20:50.526Z,3.45
2023-03-03T22:23:51.824Z,3.08
2023-03-03T22:26:53.204Z,3.13
2023-03-03T22:29:54.493Z,2.88
2023-03-03T22:32:55.904Z,3.28
2023-03-03T22:35:57.257Z,1.27
2023-03-03T22:38:58.663Z,2.72
2023-03-03T22:42:00.068Z,2.55
2023-03-03T22:45:01.335Z,4.78
2023-03-03T22:48:02.793Z,4.15
2023-03-03T22:51:04.473Z,3.80
2023-03-03T22:54:05.830Z,3.13
2023-03-03T22:57:07.125Z,4.05
2023-03-03T23:00:11.470Z,3.88
2023-03-03T23:03:12.935Z,3.55
2023-03-03T23:06:14.253Z,5.45
2023-03-03T23:09:15.772Z,4.63
2023-03-03T23:12:17.039Z,3.22
2023-03-03T23:15:18.351Z,4.53
2023-03-03T23:18:19.651Z,3.75
2023-03-03T23:21:20.950Z,3.08
2023-03-03T23:24:22.260Z,3.53
2023-03-03T23:27:23.561Z,4.15
2023-03-03T23:30:24.941Z,3.92
2023-03-03T23:33:26.186Z,3.88
2023-03-03T23:36:27.436Z,4.53
2023-03-03T23:39:28.737Z,2.95
2023-03-03T23:42:30.814Z,4.15
2023-03-03T23:45:32.139Z,3.08
2023-03-03T23:48:33.398Z,4.80
2023-03-03T23:51:34.691Z,3.58
2023-03-03T23:54:36.084Z,4.47
2023-03-03T23:57:37.429Z,4.10
